sensor_id;sensor_type;location;lat;lon;timestamp;temperature;humidity
9437;DHT22;4757;59.334;18.034;2023-11-21T00:00:08;1.20;99.90
9437;DHT22;4757;59.334;18.034;2023-11-21T00:02:40;1.20;99.90
9437;DHT22;4757;59.334;18.034;2023-11-21T00:05:09;1.10;99.90
9437;DHT22;4757;59.334;18.034;2023-11-21T00:07:43;1.10;99.90
9437;DHT22;4757;59.334;18.034;2023-11-21T00:10:11;1.10;99.90
9437;DHT22;4757;59.334;18.034;2023-11-21T00:12:42;1.20;99.90
9437;DHT22;4757;59.334;18.034;2023-11-21T00:15:10;1.10;99.90
9437;DHT22;4757;59.334;18.034;2023-11-21T00:17:41;1.20;99.90
9437;DHT22;4757;59.334;18.034;2023-11-21T00:20:09;1.10;99.90
9437;DHT22;4757;59.334;18.034;2023-11-21T00:22:40;1.10;99.90
9437;DHT22;4757;59.334;18.034;2023-11-21T00:25:08;1.10;99.90
9437;DHT22;4757;59.334;18.034;2023-11-21T00:27:36;1.10;99.90
9437;DHT22;4757;59.334;18.034;2023-11-21T00:30:04;1.10;99.90
9437;DHT22;4757;59.334;18.034;2023-11-21T00:32:32;1.10;99.90
9437;DHT22;4757;59.334;18.034;2023-11-21T00:34:59;1.20;99.90
9437;DHT22;4757;59.334;18.034;2023-11-21T00:37:26;1.10;99.90
9437;DHT22;4757;59.334;18.034;2023-11-21T00:39:54;1.10;99.90
9437;DHT22;4757;59.334;18.034;2023-11-21T00:42:21;1.00;99.90
9437;DHT22;4757;59.334;18.034;2023-11-21T00:44:48;1.10;99.90
9437;DHT22;4757;59.334;18.034;2023-11-21T00:47:15;1.10;99.90
9437;DHT22;4757;59.334;18.034;2023-11-21T00:49:42;1.10;99.90
9437;DHT22;4757;59.334;18.034;2023-11-21T00:52:10;1.10;99.90
9437;DHT22;4757;59.334;18.034;2023-11-21T00:54:37;1.10;99.90
9437;DHT22;4757;59.334;18.034;2023-11-21T00:57:04;1.00;99.90
9437;DHT22;4757;59.334;18.034;2023-11-21T00:59:31;1.00;99.90
9437;DHT22;4757;59.334;18.034;2023-11-21T01:01:58;1.00;99.90
9437;DHT22;4757;59.334;18.034;2023-11-21T01:04:28;1.10;99.90
9437;DHT22;4757;59.334;18.034;2023-11-21T01:06:55;1.10;99.90
9437;DHT22;4757;59.334;18.034;2023-11-21T01:09:22;1.10;99.90
9437;DHT22;4757;59.334;18.034;2023-11-21T01:11:49;1.10;99.90
9437;DHT22;4757;59.334;18.034;2023-11-21T01:14:16;1.10;99.90
9437;DHT22;4757;59.334;18.034;2023-11-21T01:16:44;1.10;99.90
9437;DHT22;4757;59.334;18.034;2023-11-21T01:19:12;1.10;99.90
9437;DHT22;4757;59.334;18.034;2023-11-21T01:21:39;1.10;99.90
9437;DHT22;4757;59.334;18.034;2023-11-21T01:24:07;1.10;99.90
9437;DHT22;4757;59.334;18.034;2023-11-21T01:26:34;1.20;99.90
9437;DHT22;4757;59.334;18.034;2023-11-21T01:29:01;1.10;99.90
9437;DHT22;4757;59.334;18.034;2023-11-21T01:31:28;1.10;99.90
9437;DHT22;4757;59.334;18.034;2023-11-21T01:33:56;1.20;99.90
9437;DHT22;4757;59.334;18.034;2023-11-21T01:36:30;1.20;99.90
9437;DHT22;4757;59.334;18.034;2023-11-21T01:38:59;1.20;99.90
9437;DHT22;4757;59.334;18.034;2023-11-21T01:41:27;1.20;99.90
9437;DHT22;4757;59.334;18.034;2023-11-21T01:43:55;1.20;99.90
9437;DHT22;4757;59.334;18.034;2023-11-21T01:46:23;1.30;99.90
9437;DHT22;4757;59.334;18.034;2023-11-21T01:48:51;1.30;99.90
9437;DHT22;4757;59.334;18.034;2023-11-21T01:51:19;1.20;99.90
9437;DHT22;4757;59.334;18.034;2023-11-21T01:53:47;1.10;99.90
9437;DHT22;4757;59.334;18.034;2023-11-21T01:56:14;1.20;99.90
9437;DHT22;4757;59.334;18.034;2023-11-21T01:58:42;1.10;99.90
9437;DHT22;4757;59.334;18.034;2023-11-21T02:01:10;1.20;99.90
9437;DHT22;4757;59.334;18.034;2023-11-21T02:03:37;1.10;99.90
9437;DHT22;4757;59.334;18.034;2023-11-21T02:06:05;1.10;99.90
9437;DHT22;4757;59.334;18.034;2023-11-21T02:08:32;1.10;99.90
9437;DHT22;4757;59.334;18.034;2023-11-21T02:10:59;1.10;99.90
9437;DHT22;4757;59.334;18.034;2023-11-21T02:13:26;1.10;99.90
9437;DHT22;4757;59.334;18.034;2023-11-21T02:15:54;1.20;99.90
9437;DHT22;4757;59.334;18.034;2023-11-21T02:18:21;2.50;99.90
9437;DHT22;4757;59.334;18.034;2023-11-21T02:20:49;1.20;99.90
9437;DHT22;4757;59.334;18.034;2023-11-21T02:23:16;1.10;99.90
9437;DHT22;4757;59.334;18.034;2023-11-21T02:25:44;1.10;99.90
9437;DHT22;4757;59.334;18.034;2023-11-21T02:28:11;1.10;99.90
9437;DHT22;4757;59.334;18.034;2023-11-21T02:30:42;1.20;99.90
9437;DHT22;4757;59.334;18.034;2023-11-21T02:33:10;1.20;99.90
9437;DHT22;4757;59.334;18.034;2023-11-21T02:35:39;1.20;99.90
9437;DHT22;4757;59.334;18.034;2023-11-21T02:38:06;1.00;99.90
9437;DHT22;4757;59.334;18.034;2023-11-21T02:40:33;1.00;99.90
9437;DHT22;4757;59.334;18.034;2023-11-21T02:43:00;1.00;99.90
9437;DHT22;4757;59.334;18.034;2023-11-21T02:45:28;1.10;99.90
9437;DHT22;4757;59.334;18.034;2023-11-21T02:47:55;1.10;99.90
9437;DHT22;4757;59.334;18.034;2023-11-21T02:50:25;1.10;99.90
9437;DHT22;4757;59.334;18.034;2023-11-21T02:52:52;1.10;99.90
9437;DHT22;4757;59.334;18.034;2023-11-21T02:55:19;1.10;99.90
9437;DHT22;4757;59.334;18.034;2023-11-21T02:57:46;1.10;99.90
9437;DHT22;4757;59.334;18.034;2023-11-21T03:00:14;1.10;99.90
9437;DHT22;4757;59.334;18.034;2023-11-21T03:02:42;1.10;99.90
9437;DHT22;4757;59.334;18.034;2023-11-21T03:05:10;1.10;99.90
9437;DHT22;4757;59.334;18.034;2023-11-21T03:07:38;1.10;99.90
9437;DHT22;4757;59.334;18.034;2023-11-21T03:10:07;1.10;99.90
9437;DHT22;4757;59.334;18.034;2023-11-21T03:12:40;1.20;99.90
9437;DHT22;4757;59.334;18.034;2023-11-21T03:15:07;1.20;99.90
9437;DHT22;4757;59.334;18.034;2023-11-21T03:17:35;1.20;99.90
9437;DHT22;4757;59.334;18.034;2023-11-21T03:20:06;1.10;99.90
9437;DHT22;4757;59.334;18.034;2023-11-21T03:22:38;1.20;99.90
9437;DHT22;4757;59.334;18.034;2023-11-21T03:25:06;1.20;99.90
9437;DHT22;4757;59.334;18.034;2023-11-21T03:27:37;1.20;99.90
9437;DHT22;4757;59.334;18.034;2023-11-21T03:30:08;1.20;99.90
9437;DHT22;4757;59.334;18.034;2023-11-21T03:32:36;1.10;99.90
9437;DHT22;4757;59.334;18.034;2023-11-21T03:35:04;1.20;99.90
9437;DHT22;4757;59.334;18.034;2023-11-21T03:37:33;1.20;99.90
9437;DHT22;4757;59.334;18.034;2023-11-21T03:40:00;1.30;99.90
9437;DHT22;4757;59.334;18.034;2023-11-21T03:42:27;1.30;99.90
9437;DHT22;4757;59.334;18.034;2023-11-21T03:44:55;1.20;99.90
9437;DHT22;4757;59.334;18.034;2023-11-21T03:47:22;1.30;99.90
9437;DHT22;4757;59.334;18.034;2023-11-21T03:49:49;1.30;99.90
9437;DHT22;4757;59.334;18.034;2023-11-21T03:52:16;1.30;99.90
9437;DHT22;4757;59.334;18.034;2023-11-21T03:54:44;1.30;99.90
9437;DHT22;4757;59.334;18.034;2023-11-21T03:57:11;1.30;99.90
9437;DHT22;4757;59.334;18.034;2023-11-21T03:59:42;1.30;99.90
9437;DHT22;4757;59.334;18.034;2023-11-21T04:02:10;1.40;99.90
9437;DHT22;4757;59.334;18.034;2023-11-21T04:04:37;1.30;99.90
9437;DHT22;4757;59.334;18.034;2023-11-21T04:07:04;1.40;99.90
9437;DHT22;4757;59.334;18.034;2023-11-21T04:09:32;1.50;99.90
9437;DHT22;4757;59.334;18.034;2023-11-21T04:11:59;1.50;99.90
9437;DHT22;4757;59.334;18.034;2023-11-21T04:14:26;1.50;99.90
9437;DHT22;4757;59.334;18.034;2023-11-21T04:16:53;1.50;99.90
9437;DHT22;4757;59.334;18.034;2023-11-21T04:19:21;1.60;99.90
9437;DHT22;4757;59.334;18.034;2023-11-21T04:21:48;1.60;99.90
9437;DHT22;4757;59.334;18.034;2023-11-21T04:24:17;1.60;99.90
9437;DHT22;4757;59.334;18.034;2023-11-21T04:26:44;1.60;99.90
9437;DHT22;4757;59.334;18.034;2023-11-21T04:29:12;1.60;99.90
9437;DHT22;4757;59.334;18.034;2023-11-21T04:31:39;1.60;99.90
9437;DHT22;4757;59.334;18.034;2023-11-21T04:34:06;1.70;99.90
9437;DHT22;4757;59.334;18.034;2023-11-21T04:36:33;1.60;99.90
9437;DHT22;4757;59.334;18.034;2023-11-21T04:39:01;1.60;99.90
9437;DHT22;4757;59.334;18.034;2023-11-21T04:41:28;1.60;99.90
9437;DHT22;4757;59.334;18.034;2023-11-21T04:43:56;1.60;99.90
9437;DHT22;4757;59.334;18.034;2023-11-21T04:46:23;1.60;99.90
9437;DHT22;4757;59.334;18.034;2023-11-21T04:48:50;1.60;99.90
9437;DHT22;4757;59.334;18.034;2023-11-21T04:51:17;1.60;99.90
9437;DHT22;4757;59.334;18.034;2023-11-21T04:53:44;1.60;99.90
9437;DHT22;4757;59.334;18.034;2023-11-21T04:56:11;1.60;99.90
9437;DHT22;4757;59.334;18.034;2023-11-21T04:58:39;1.60;99.90
9437;DHT22;4757;59.334;18.034;2023-11-21T05:01:07;1.60;99.90
9437;DHT22;4757;59.334;18.034;2023-11-21T05:03:35;1.60;99.90
9437;DHT22;4757;59.334;18.034;2023-11-21T05:06:02;1.60;99.90
9437;DHT22;4757;59.334;18.034;2023-11-21T05:08:32;1.70;99.90
9437;DHT22;4757;59.334;18.034;2023-11-21T05:10:59;1.70;99.90
9437;DHT22;4757;59.334;18.034;2023-11-21T05:13:26;1.70;99.90
9437;DHT22;4757;59.334;18.034;2023-11-21T05:15:55;1.70;99.90
9437;DHT22;4757;59.334;18.034;2023-11-21T05:18:26;1.70;99.90
9437;DHT22;4757;59.334;18.034;2023-11-21T05:20:57;1.70;99.90
9437;DHT22;4757;59.334;18.034;2023-11-21T05:23:25;1.70;99.90
9437;DHT22;4757;59.334;18.034;2023-11-21T05:25:52;1.60;99.90
9437;DHT22;4757;59.334;18.034;2023-11-21T05:28:19;1.70;99.90
9437;DHT22;4757;59.334;18.034;2023-11-21T05:30:46;1.70;99.90
9437;DHT22;4757;59.334;18.034;2023-11-21T05:33:17;1.80;99.90
9437;DHT22;4757;59.334;18.034;2023-11-21T05:35:44;1.80;99.90
9437;DHT22;4757;59.334;18.034;2023-11-21T05:38:12;1.80;99.90
9437;DHT22;4757;59.334;18.034;2023-11-21T05:40:41;1.90;99.90
9437;DHT22;4757;59.334;18.034;2023-11-21T05:43:11;1.90;99.90
9437;DHT22;4757;59.334;18.034;2023-11-21T05:45:38;1.90;99.90
9437;DHT22;4757;59.334;18.034;2023-11-21T05:48:05;1.90;99.90
9437;DHT22;4757;59.334;18.034;2023-11-21T05:50:33;1.90;99.90
9437;DHT22;4757;59.334;18.034;2023-11-21T05:53:00;2.00;99.90
9437;DHT22;4757;59.334;18.034;2023-11-21T05:55:27;1.90;99.90
9437;DHT22;4757;59.334;18.034;2023-11-21T05:57:55;1.90;99.90
9437;DHT22;4757;59.334;18.034;2023-11-21T06:00:22;1.90;99.90
9437;DHT22;4757;59.334;18.034;2023-11-21T06:02:49;1.90;99.90
9437;DHT22;4757;59.334;18.034;2023-11-21T06:05:25;2.00;99.90
9437;DHT22;4757;59.334;18.034;2023-11-21T06:07:54;2.00;99.90
9437;DHT22;4757;59.334;18.034;2023-11-21T06:10:22;2.00;99.90
9437;DHT22;4757;59.334;18.034;2023-11-21T06:12:52;2.00;99.90
9437;DHT22;4757;59.334;18.034;2023-11-21T06:15:20;2.00;99.90
9437;DHT22;4757;59.334;18.034;2023-11-21T06:17:49;2.00;99.90
9437;DHT22;4757;59.334;18.034;2023-11-21T06:20:20;2.10;99.90
9437;DHT22;4757;59.334;18.034;2023-11-21T06:22:49;2.10;99.90
9437;DHT22;4757;59.334;18.034;2023-11-21T06:25:17;2.10;99.90
9437;DHT22;4757;59.334;18.034;2023-11-21T06:27:46;2.10;99.90
9437;DHT22;4757;59.334;18.034;2023-11-21T06:30:17;2.00;99.90
9437;DHT22;4757;59.334;18.034;2023-11-21T06:32:46;2.10;99.90
9437;DHT22;4757;59.334;18.034;2023-11-21T06:35:15;2.10;99.90
9437;DHT22;4757;59.334;18.034;2023-11-21T06:37:44;2.00;99.90
9437;DHT22;4757;59.334;18.034;2023-11-21T06:40:19;2.10;99.90
9437;DHT22;4757;59.334;18.034;2023-11-21T06:42:47;2.10;99.90
9437;DHT22;4757;59.334;18.034;2023-11-21T06:45:16;2.00;99.90
9437;DHT22;4757;59.334;18.034;2023-11-21T06:47:44;2.10;99.90
9437;DHT22;4757;59.334;18.034;2023-11-21T06:50:13;2.00;99.90
9437;DHT22;4757;59.334;18.034;2023-11-21T06:52:40;2.10;99.90
9437;DHT22;4757;59.334;18.034;2023-11-21T06:55:08;2.10;99.90
9437;DHT22;4757;59.334;18.034;2023-11-21T06:57:36;2.10;99.90
9437;DHT22;4757;59.334;18.034;2023-11-21T07:00:03;2.10;99.90
9437;DHT22;4757;59.334;18.034;2023-11-21T07:02:31;2.10;99.90
9437;DHT22;4757;59.334;18.034;2023-11-21T07:04:59;2.10;99.90
9437;DHT22;4757;59.334;18.034;2023-11-21T07:07:27;2.10;99.90
9437;DHT22;4757;59.334;18.034;2023-11-21T07:09:55;2.00;99.90
9437;DHT22;4757;59.334;18.034;2023-11-21T07:12:22;2.00;99.90
9437;DHT22;4757;59.334;18.034;2023-11-21T07:14:50;2.00;99.90
9437;DHT22;4757;59.334;18.034;2023-11-21T07:17:17;2.00;99.90
9437;DHT22;4757;59.334;18.034;2023-11-21T07:19:44;1.90;99.90
9437;DHT22;4757;59.334;18.034;2023-11-21T07:22:12;2.10;99.90
9437;DHT22;4757;59.334;18.034;2023-11-21T07:24:41;2.10;99.90
9437;DHT22;4757;59.334;18.034;2023-11-21T07:27:08;2.20;99.90
9437;DHT22;4757;59.334;18.034;2023-11-21T07:29:35;2.10;99.90
9437;DHT22;4757;59.334;18.034;2023-11-21T07:32:02;2.20;99.90
9437;DHT22;4757;59.334;18.034;2023-11-21T07:34:31;2.10;99.90
9437;DHT22;4757;59.334;18.034;2023-11-21T07:36:58;2.20;99.90
9437;DHT22;4757;59.334;18.034;2023-11-21T07:39:25;2.30;99.90
9437;DHT22;4757;59.334;18.034;2023-11-21T07:41:52;2.20;99.90
9437;DHT22;4757;59.334;18.034;2023-11-21T07:44:20;2.20;99.90
9437;DHT22;4757;59.334;18.034;2023-11-21T07:46:50;2.20;99.90
9437;DHT22;4757;59.334;18.034;2023-11-21T07:49:17;2.20;99.90
9437;DHT22;4757;59.334;18.034;2023-11-21T07:51:47;2.10;99.90
9437;DHT22;4757;59.334;18.034;2023-11-21T07:54:15;2.10;99.90
9437;DHT22;4757;59.334;18.034;2023-11-21T07:56:43;2.10;99.90
9437;DHT22;4757;59.334;18.034;2023-11-21T07:59:10;2.10;99.90
9437;DHT22;4757;59.334;18.034;2023-11-21T08:01:37;2.10;99.90
9437;DHT22;4757;59.334;18.034;2023-11-21T08:04:05;2.00;99.90
9437;DHT22;4757;59.334;18.034;2023-11-21T08:06:33;2.00;99.90
9437;DHT22;4757;59.334;18.034;2023-11-21T08:09:00;2.00;99.90
9437;DHT22;4757;59.334;18.034;2023-11-21T08:11:28;2.00;99.90
9437;DHT22;4757;59.334;18.034;2023-11-21T08:13:56;2.10;99.90
9437;DHT22;4757;59.334;18.034;2023-11-21T08:16:24;2.10;99.90
9437;DHT22;4757;59.334;18.034;2023-11-21T08:18:51;2.10;99.90
9437;DHT22;4757;59.334;18.034;2023-11-21T08:21:18;2.00;99.90
9437;DHT22;4757;59.334;18.034;2023-11-21T08:23:46;2.20;99.90
9437;DHT22;4757;59.334;18.034;2023-11-21T08:26:16;2.10;99.90
9437;DHT22;4757;59.334;18.034;2023-11-21T08:28:45;2.10;99.90
9437;DHT22;4757;59.334;18.034;2023-11-21T08:31:12;2.10;99.90
9437;DHT22;4757;59.334;18.034;2023-11-21T08:33:44;2.10;99.90
9437;DHT22;4757;59.334;18.034;2023-11-21T08:36:11;2.00;99.90
9437;DHT22;4757;59.334;18.034;2023-11-21T08:38:39;1.90;99.90
9437;DHT22;4757;59.334;18.034;2023-11-21T08:41:06;1.90;99.90
9437;DHT22;4757;59.334;18.034;2023-11-21T08:43:36;1.90;99.90
9437;DHT22;4757;59.334;18.034;2023-11-21T08:46:07;1.90;99.90
9437;DHT22;4757;59.334;18.034;2023-11-21T08:48:36;2.00;99.90
9437;DHT22;4757;59.334;18.034;2023-11-21T08:51:04;1.90;99.90
9437;DHT22;4757;59.334;18.034;2023-11-21T08:53:32;2.00;99.90
9437;DHT22;4757;59.334;18.034;2023-11-21T08:55:59;2.00;99.90
9437;DHT22;4757;59.334;18.034;2023-11-21T08:58:27;2.00;99.90
9437;DHT22;4757;59.334;18.034;2023-11-21T09:00:54;1.90;99.90
9437;DHT22;4757;59.334;18.034;2023-11-21T09:03:22;1.70;99.90
9437;DHT22;4757;59.334;18.034;2023-11-21T09:05:49;1.00;99.90
9437;DHT22;4757;59.334;18.034;2023-11-21T09:08:16;1.90;99.90
9437;DHT22;4757;59.334;18.034;2023-11-21T09:10:43;2.00;99.90
9437;DHT22;4757;59.334;18.034;2023-11-21T09:13:14;1.90;99.90
9437;DHT22;4757;59.334;18.034;2023-11-21T09:15:43;1.90;99.90
9437;DHT22;4757;59.334;18.034;2023-11-21T09:18:16;1.90;99.90
9437;DHT22;4757;59.334;18.034;2023-11-21T09:20:43;2.00;99.90
9437;DHT22;4757;59.334;18.034;2023-11-21T09:23:15;2.00;99.90
9437;DHT22;4757;59.334;18.034;2023-11-21T09:25:42;2.00;99.90
9437;DHT22;4757;59.334;18.034;2023-11-21T09:28:13;1.90;99.90
9437;DHT22;4757;59.334;18.034;2023-11-21T09:30:43;1.90;99.90
9437;DHT22;4757;59.334;18.034;2023-11-21T09:33:10;1.90;99.90
9437;DHT22;4757;59.334;18.034;2023-11-21T09:35:38;1.90;99.90
9437;DHT22;4757;59.334;18.034;2023-11-21T09:38:06;2.00;99.90
9437;DHT22;4757;59.334;18.034;2023-11-21T09:40:38;2.00;99.90
9437;DHT22;4757;59.334;18.034;2023-11-21T09:43:16;2.10;99.90
9437;DHT22;4757;59.334;18.034;2023-11-21T09:45:56;2.10;99.90
9437;DHT22;4757;59.334;18.034;2023-11-21T09:48:36;2.20;99.90
9437;DHT22;4757;59.334;18.034;2023-11-21T09:51:05;2.20;99.90
9437;DHT22;4757;59.334;18.034;2023-11-21T09:53:33;2.30;99.90
9437;DHT22;4757;59.334;18.034;2023-11-21T09:56:01;2.40;99.90
9437;DHT22;4757;59.334;18.034;2023-11-21T09:58:29;2.30;99.90
9437;DHT22;4757;59.334;18.034;2023-11-21T10:00:58;2.30;99.90
9437;DHT22;4757;59.334;18.034;2023-11-21T10:03:26;2.40;99.90
9437;DHT22;4757;59.334;18.034;2023-11-21T10:05:56;2.40;99.90
9437;DHT22;4757;59.334;18.034;2023-11-21T10:08:28;2.50;99.90
9437;DHT22;4757;59.334;18.034;2023-11-21T10:11:15;2.30;99.90
9437;DHT22;4757;59.334;18.034;2023-11-21T10:13:45;2.40;99.90
9437;DHT22;4757;59.334;18.034;2023-11-21T10:16:16;2.60;99.90
9437;DHT22;4757;59.334;18.034;2023-11-21T10:18:52;2.50;99.90
9437;DHT22;4757;59.334;18.034;2023-11-21T10:21:38;2.50;99.90
9437;DHT22;4757;59.334;18.034;2023-11-21T10:24:06;2.50;99.90
9437;DHT22;4757;59.334;18.034;2023-11-21T10:26:33;2.40;99.90
9437;DHT22;4757;59.334;18.034;2023-11-21T10:29:16;2.30;99.90
9437;DHT22;4757;59.334;18.034;2023-11-21T10:31:45;2.20;99.90
9437;DHT22;4757;59.334;18.034;2023-11-21T10:34:19;2.20;99.90
9437;DHT22;4757;59.334;18.034;2023-11-21T10:36:47;2.20;99.90
9437;DHT22;4757;59.334;18.034;2023-11-21T10:39:18;2.30;99.90
9437;DHT22;4757;59.334;18.034;2023-11-21T10:41:47;2.10;99.90
9437;DHT22;4757;59.334;18.034;2023-11-21T10:44:18;2.10;99.90
9437;DHT22;4757;59.334;18.034;2023-11-21T10:46:51;2.10;99.90
9437;DHT22;4757;59.334;18.034;2023-11-21T10:49:21;2.20;99.90
9437;DHT22;4757;59.334;18.034;2023-11-21T10:51:48;2.20;99.90
9437;DHT22;4757;59.334;18.034;2023-11-21T10:54:20;2.30;99.90
9437;DHT22;4757;59.334;18.034;2023-11-21T10:56:50;2.40;99.90
9437;DHT22;4757;59.334;18.034;2023-11-21T10:59:18;2.30;99.90
9437;DHT22;4757;59.334;18.034;2023-11-21T11:01:47;2.20;99.90
9437;DHT22;4757;59.334;18.034;2023-11-21T11:04:20;2.30;99.90
9437;DHT22;4757;59.334;18.034;2023-11-21T11:06:56;2.40;99.90
9437;DHT22;4757;59.334;18.034;2023-11-21T11:09:24;2.30;99.90
9437;DHT22;4757;59.334;18.034;2023-11-21T11:11:51;2.30;99.90
9437;DHT22;4757;59.334;18.034;2023-11-21T11:14:20;2.30;99.90
9437;DHT22;4757;59.334;18.034;2023-11-21T11:16:54;2.40;99.90
9437;DHT22;4757;59.334;18.034;2023-11-21T11:19:22;2.40;99.90
9437;DHT22;4757;59.334;18.034;2023-11-21T11:22:04;2.40;99.90
9437;DHT22;4757;59.334;18.034;2023-11-21T11:24:44;2.50;99.90
9437;DHT22;4757;59.334;18.034;2023-11-21T11:30:16;2.50;99.90
9437;DHT22;4757;59.334;18.034;2023-11-21T11:32:52;2.40;99.90
9437;DHT22;4757;59.334;18.034;2023-11-21T11:35:49;2.50;99.90
9437;DHT22;4757;59.334;18.034;2023-11-21T11:38:19;2.40;99.90
9437;DHT22;4757;59.334;18.034;2023-11-21T11:40:53;2.40;99.90
9437;DHT22;4757;59.334;18.034;2023-11-21T11:43:27;2.40;99.90
9437;DHT22;4757;59.334;18.034;2023-11-21T11:45:58;2.30;99.90
9437;DHT22;4757;59.334;18.034;2023-11-21T11:48:26;2.30;99.90
9437;DHT22;4757;59.334;18.034;2023-11-21T11:53:43;2.30;99.90
9437;DHT22;4757;59.334;18.034;2023-11-21T11:56:28;2.30;99.90
9437;DHT22;4757;59.334;18.034;2023-11-21T11:58:58;2.40;99.90
9437;DHT22;4757;59.334;18.034;2023-11-21T12:01:26;2.40;99.90
9437;DHT22;4757;59.334;18.034;2023-11-21T12:06:53;2.50;99.90
9437;DHT22;4757;59.334;18.034;2023-11-21T12:09:23;2.40;99.90
9437;DHT22;4757;59.334;18.034;2023-11-21T12:11:51;2.30;99.90
9437;DHT22;4757;59.334;18.034;2023-11-21T12:14:18;2.10;99.90
9437;DHT22;4757;59.334;18.034;2023-11-21T12:16:45;2.10;99.90
9437;DHT22;4757;59.334;18.034;2023-11-21T12:19:13;2.00;99.90
9437;DHT22;4757;59.334;18.034;2023-11-21T12:21:40;2.00;99.90
9437;DHT22;4757;59.334;18.034;2023-11-21T12:24:08;2.10;99.90
9437;DHT22;4757;59.334;18.034;2023-11-21T12:26:41;2.10;99.90
9437;DHT22;4757;59.334;18.034;2023-11-21T12:29:09;2.10;99.90
9437;DHT22;4757;59.334;18.034;2023-11-21T12:31:37;2.20;99.90
9437;DHT22;4757;59.334;18.034;2023-11-21T12:34:05;2.10;99.90
9437;DHT22;4757;59.334;18.034;2023-11-21T12:36:34;2.10;99.90
9437;DHT22;4757;59.334;18.034;2023-11-21T12:39:02;2.00;99.90
9437;DHT22;4757;59.334;18.034;2023-11-21T12:41:30;2.00;99.90
9437;DHT22;4757;59.334;18.034;2023-11-21T12:43:57;2.00;99.90
9437;DHT22;4757;59.334;18.034;2023-11-21T12:46:25;2.10;99.90
9437;DHT22;4757;59.334;18.034;2023-11-21T12:48:57;1.90;99.90
9437;DHT22;4757;59.334;18.034;2023-11-21T12:51:25;1.80;99.90
9437;DHT22;4757;59.334;18.034;2023-11-21T12:53:52;1.70;99.90
9437;DHT22;4757;59.334;18.034;2023-11-21T12:56:21;1.60;99.90
9437;DHT22;4757;59.334;18.034;2023-11-21T12:58:53;1.50;99.90
9437;DHT22;4757;59.334;18.034;2023-11-21T13:01:25;1.50;99.90
9437;DHT22;4757;59.334;18.034;2023-11-21T13:03:57;1.60;99.90
9437;DHT22;4757;59.334;18.034;2023-11-21T13:06:25;1.60;99.90
9437;DHT22;4757;59.334;18.034;2023-11-21T13:08:54;1.40;99.90
9437;DHT22;4757;59.334;18.034;2023-11-21T13:11:24;1.50;99.90
9437;DHT22;4757;59.334;18.034;2023-11-21T13:13:54;1.60;99.90
9437;DHT22;4757;59.334;18.034;2023-11-21T13:16:23;1.60;99.90
9437;DHT22;4757;59.334;18.034;2023-11-21T13:18:51;1.50;99.90
9437;DHT22;4757;59.334;18.034;2023-11-21T13:21:18;1.50;99.90
9437;DHT22;4757;59.334;18.034;2023-11-21T13:23:45;1.50;99.90
9437;DHT22;4757;59.334;18.034;2023-11-21T13:26:13;1.60;99.90
9437;DHT22;4757;59.334;18.034;2023-11-21T13:28:42;1.60;99.90
9437;DHT22;4757;59.334;18.034;2023-11-21T13:31:14;1.50;99.90
9437;DHT22;4757;59.334;18.034;2023-11-21T13:33:58;1.60;99.90
9437;DHT22;4757;59.334;18.034;2023-11-21T13:36:32;1.50;99.90
9437;DHT22;4757;59.334;18.034;2023-11-21T13:39:03;1.50;99.90
9437;DHT22;4757;59.334;18.034;2023-11-21T13:41:35;1.40;99.90
9437;DHT22;4757;59.334;18.034;2023-11-21T13:44:05;1.40;99.90
9437;DHT22;4757;59.334;18.034;2023-11-21T13:46:44;1.30;99.90
9437;DHT22;4757;59.334;18.034;2023-11-21T13:49:13;1.30;99.90
9437;DHT22;4757;59.334;18.034;2023-11-21T13:51:42;1.30;99.90
9437;DHT22;4757;59.334;18.034;2023-11-21T13:54:15;1.20;99.90
9437;DHT22;4757;59.334;18.034;2023-11-21T13:56:42;1.30;99.90
9437;DHT22;4757;59.334;18.034;2023-11-21T13:59:12;1.20;99.90
9437;DHT22;4757;59.334;18.034;2023-11-21T14:01:52;1.30;99.90
9437;DHT22;4757;59.334;18.034;2023-11-21T14:04:20;1.30;99.90
9437;DHT22;4757;59.334;18.034;2023-11-21T14:06:59;1.30;99.90
9437;DHT22;4757;59.334;18.034;2023-11-21T14:09:37;1.30;99.90
9437;DHT22;4757;59.334;18.034;2023-11-21T14:12:11;1.30;99.90
9437;DHT22;4757;59.334;18.034;2023-11-21T14:14:40;1.20;99.90
9437;DHT22;4757;59.334;18.034;2023-11-21T14:17:07;1.20;99.90
9437;DHT22;4757;59.334;18.034;2023-11-21T14:19:34;1.10;99.90
9437;DHT22;4757;59.334;18.034;2023-11-21T14:22:05;1.10;99.90
9437;DHT22;4757;59.334;18.034;2023-11-21T14:24:36;1.10;99.90
9437;DHT22;4757;59.334;18.034;2023-11-21T14:27:04;1.10;99.90
9437;DHT22;4757;59.334;18.034;2023-11-21T14:29:32;1.20;99.90
9437;DHT22;4757;59.334;18.034;2023-11-21T14:32:05;1.10;99.90
9437;DHT22;4757;59.334;18.034;2023-11-21T14:34:32;1.10;99.90
9437;DHT22;4757;59.334;18.034;2023-11-21T14:37:00;1.10;99.90
9437;DHT22;4757;59.334;18.034;2023-11-21T14:39:29;1.00;99.90
9437;DHT22;4757;59.334;18.034;2023-11-21T14:41:57;1.00;99.90
9437;DHT22;4757;59.334;18.034;2023-11-21T14:44:25;1.00;99.90
9437;DHT22;4757;59.334;18.034;2023-11-21T14:46:56;1.00;99.90
9437;DHT22;4757;59.334;18.034;2023-11-21T14:49:25;1.00;99.90
9437;DHT22;4757;59.334;18.034;2023-11-21T14:51:55;1.00;99.90
9437;DHT22;4757;59.334;18.034;2023-11-21T14:54:22;0.90;99.90
9437;DHT22;4757;59.334;18.034;2023-11-21T14:57:09;1.00;99.90
9437;DHT22;4757;59.334;18.034;2023-11-21T14:59:46;0.90;99.90
9437;DHT22;4757;59.334;18.034;2023-11-21T15:02:16;0.80;99.90
9437;DHT22;4757;59.334;18.034;2023-11-21T15:04:45;0.90;99.90
9437;DHT22;4757;59.334;18.034;2023-11-21T15:07:13;0.90;99.90
9437;DHT22;4757;59.334;18.034;2023-11-21T15:09:40;0.90;99.90
9437;DHT22;4757;59.334;18.034;2023-11-21T15:12:09;0.80;99.90
9437;DHT22;4757;59.334;18.034;2023-11-21T15:14:44;0.80;99.90
9437;DHT22;4757;59.334;18.034;2023-11-21T15:17:14;0.80;99.90
9437;DHT22;4757;59.334;18.034;2023-11-21T15:19:48;0.80;99.90
9437;DHT22;4757;59.334;18.034;2023-11-21T15:22:15;0.80;99.90
9437;DHT22;4757;59.334;18.034;2023-11-21T15:24:45;0.80;99.90
9437;DHT22;4757;59.334;18.034;2023-11-21T15:27:14;0.80;99.90
9437;DHT22;4757;59.334;18.034;2023-11-21T15:29:43;0.80;99.90
9437;DHT22;4757;59.334;18.034;2023-11-21T15:32:13;0.80;99.90
9437;DHT22;4757;59.334;18.034;2023-11-21T15:34:40;2.10;99.90
9437;DHT22;4757;59.334;18.034;2023-11-21T15:37:08;0.90;99.90
9437;DHT22;4757;59.334;18.034;2023-11-21T15:39:39;0.90;99.90
9437;DHT22;4757;59.334;18.034;2023-11-21T15:42:06;1.00;99.90
9437;DHT22;4757;59.334;18.034;2023-11-21T15:44:34;0.90;99.90
9437;DHT22;4757;59.334;18.034;2023-11-21T15:47:01;0.90;99.90
9437;DHT22;4757;59.334;18.034;2023-11-21T15:49:31;1.00;99.90
9437;DHT22;4757;59.334;18.034;2023-11-21T15:52:06;1.00;99.90
9437;DHT22;4757;59.334;18.034;2023-11-21T15:54:38;1.10;99.90
9437;DHT22;4757;59.334;18.034;2023-11-21T15:57:07;1.10;99.90
9437;DHT22;4757;59.334;18.034;2023-11-21T15:59:40;1.10;99.90
9437;DHT22;4757;59.334;18.034;2023-11-21T16:02:10;1.10;99.90
9437;DHT22;4757;59.334;18.034;2023-11-21T16:04:39;1.10;99.90
9437;DHT22;4757;59.334;18.034;2023-11-21T16:07:09;1.10;99.90
9437;DHT22;4757;59.334;18.034;2023-11-21T16:09:38;1.10;99.90
9437;DHT22;4757;59.334;18.034;2023-11-21T16:12:07;1.10;99.90
9437;DHT22;4757;59.334;18.034;2023-11-21T16:14:36;1.00;99.90
9437;DHT22;4757;59.334;18.034;2023-11-21T16:17:12;0.90;99.90
9437;DHT22;4757;59.334;18.034;2023-11-21T16:19:41;0.90;99.90
9437;DHT22;4757;59.334;18.034;2023-11-21T16:22:10;0.90;99.90